Latest Weather Observations for Bendigo

IDV60801

Issued at 9:32 pm EST Thursday 22 June 2017 (issued every 30 minutes, with the page automatically refreshed every 10 minutes)

About weather observations | Map of weather stations | Latest weather observations for VIC | Other Formats
Station Details ID: 081123 Name: BENDIGO AIRPORT Lat: -36.74 Lon: 144.33 Height: 208.0 m
Data from the previous 72 hours. | See also: Recent months at Bendigo
Date/Time
EST
Temp
°C
App
Temp
°C
Dew
Point
°C
Rel
Hum
%
Delta-T
°C
Wind Press
QNH
hPa
Press
MSL
hPa
Rain since
9am
mm
Dir  Spd
km/h
Gust
km/h
Spd
kts
Gust
kts
22/09:30pm 3.9 1.1 3.2 95 0.3 SSE 7 7 4 4 1023.7 1024.1 0.0
22/09:00pm 4.2 1.1 3.5 95 0.3 SSE 9 9 5 5 1024.1 1024.5 0.0
22/08:30pm 4.2 2.7 3.2 93 0.4 CALM 0 0 0 0 1024.1 1024.5 0.0
22/08:00pm 5.2 3.9 4.0 92 0.5 CALM 0 0 0 0 1024.2 1024.6 0.0
22/07:30pm 6.1 4.2 4.7 91 0.6 SSE 4 6 2 3 1024.0 1024.4 0.0
22/07:00pm 6.3 3.8 4.8 90 0.7 S 7 7 4 4 1024.2 1024.6 0.0
22/06:30pm 6.8 4.3 4.8 87 0.9 S 7 9 4 5 1024.3 1024.7 0.0
22/06:00pm 7.3 4.9 5.1 86 1.0 SSE 7 9 4 5 1024.1 1024.5 0.0
22/05:30pm 8.2 6.0 5.1 81 1.4 E 6 7 3 4 1024.0 1024.4 0.0
22/05:00pm 11.1 9.0 5.6 69 2.6 NE 6 7 3 4 1024.1 1024.5 0.0
22/04:30pm 12.1 9.1 5.9 66 2.9 NE 11 13 6 7 1024.1 1024.5 0.0
22/04:00pm 12.3 9.6 5.7 64 3.1 NNE 9 11 5 6 1024.5 1024.9 0.0
22/03:30pm 12.6 10.4 5.5 62 3.3 NNW 6 9 3 5 1024.6 1025.0 0.0
22/03:00pm 12.6 10.3 4.8 59 3.6 NNW 6 7 3 4 1025.1 1025.5 0.0
22/02:30pm 12.3 9.9 5.2 62 3.3 N 7 13 4 7 1025.3 1025.7 0.0
22/02:00pm 12.2 9.5 5.8 65 3.0 N 9 15 5 8 1025.6 1026.0 0.0
22/01:30pm 11.9 8.7 5.3 64 3.1 N 11 15 6 8 1025.8 1026.2 0.0
22/01:00pm 11.7 7.7 4.9 63 3.1 NNW 15 19 8 10 1026.2 1026.6 0.0
22/12:30pm 11.8 8.1 4.3 60 3.4 N 13 15 7 8 1026.8 1027.3 0.0
22/12:00pm 11.8 8.5 4.8 62 3.2 NE 11 17 6 9 1027.2 1027.6 0.0
22/11:30am 11.8 8.6 5.0 63 3.2 NE 11 15 6 8 1027.6 1028.0 0.0
22/11:00am 11.2 8.2 4.2 62 3.1 ENE 9 11 5 6 1027.9 1028.3 0.0
22/10:30am 10.8 8.0 5.1 68 2.6 ENE 9 13 5 7 1027.9 1028.3 0.0
22/10:00am 9.8 7.7 6.0 77 1.8 SE 6 7 3 4 1028.5 1028.9 0.0
22/09:30am 9.2 6.6 5.9 80 1.5 SSE 9 11 5 6 1028.2 1028.6 0.0
22/09:00am 8.6 6.0 6.1 84 1.1 SSE 9 13 5 7 1028.1 1028.5 0.2
22/08:30am 8.1 6.4 5.9 86 1.0 SSW 4 7 2 4 1028.3 1028.7 0.2
22/08:00am 7.9 5.7 5.5 85 1.1 SW 6 7 3 4 1027.9 1028.3 0.2
22/07:30am 7.8 5.6 5.4 85 1.1 SE 6 9 3 5 1027.6 1028.0 0.2
22/07:00am 7.9 6.9 5.4 84 1.1 CALM 0 6 0 3 1027.4 1027.8 0.2
22/06:30am 8.0 6.6 5.3 83 1.2 SSE 2 6 1 3 1027.3 1027.7 0.2
22/06:00am 8.2 5.1 5.5 83 1.2 SE 11 13 6 7 1027.2 1027.6 0.2
22/05:30am 8.0 5.3 5.6 85 1.1 SSE 9 9 5 5 1027.1 1027.5 0.2
22/05:00am 7.9 5.2 5.7 86 1.0 SSE 9 11 5 6 1027.0 1027.4 0.2
22/04:30am 8.0 5.7 5.6 85 1.1 S 7 9 4 5 1027.0 1027.4 0.2
22/04:00am 8.1 5.4 5.7 85 1.1 SSE 9 13 5 7 1027.0 1027.4 0.2
22/03:30am 8.0 4.6 5.8 86 1.0 SSE 13 15 7 8 1027.0 1027.4 0.2
22/03:00am 7.7 5.0 5.7 87 0.9 SE 9 11 5 6 1027.1 1027.5 0.2
22/02:30am 7.6 4.9 5.7 88 0.9 SE 9 11 5 6 1027.2 1027.6 0.2
22/02:00am 7.6 4.5 5.7 88 0.9 SSE 11 13 6 7 1027.2 1027.6 0.2
22/01:30am 7.5 4.9 6.0 90 0.7 SE 9 13 5 7 1027.4 1027.8 0.2
22/01:00am 7.2 4.7 6.6 96 0.3 SE 9 13 5 7 1027.5 1027.9 0.2
22/12:30am 5.2 2.8 4.5 95 0.3 SSE 6 7 3 4 1027.9 1028.3 0.2
22/12:00am 5.9 3.4 5.0 94 0.4 SSE 7 9 4 5 1028.0 1028.4 0.2
 
Date/Time
EST
Temp
°C
App
Temp
°C
Dew
Point
°C
Rel
Hum
%
Delta-T
°C
Wind Press
QNH
hPa
Press
MSL
hPa
Rain since
9am
mm
Dir  Spd
km/h
Gust
km/h
Spd
kts
Gust
kts
21/11:30pm 6.0 3.7 4.8 92 0.5 SSE 6 7 3 4 1028.1 1028.5 0.2
21/11:00pm 7.2 4.5 5.8 91 0.6 SE 9 11 5 6 1028.2 1028.6 0.2
21/10:30pm 7.1 4.5 5.9 92 0.5 SSE 9 11 5 6 1028.4 1028.8 0.2
21/10:00pm 7.9 5.4 6.7 92 0.6 S 9 13 5 7 1028.6 1029.0 0.2
21/09:30pm 7.6 5.5 5.9 89 0.8 SE 6 7 3 4 1028.4 1028.8 0.2
21/09:00pm 8.3 5.8 6.4 88 0.9 SE 9 9 5 5 1028.5 1028.9 0.2
21/08:30pm 8.3 5.9 6.9 91 0.7 SE 9 11 5 6 1028.7 1029.1 0.2
21/08:00pm 8.0 7.2 6.5 90 0.7 CALM 0 7 0 4 1028.6 1029.0 0.2
21/07:30pm 9.0 7.2 7.1 88 0.9 SSE 6 7 3 4 1028.3 1028.7 0.2
21/07:00pm 9.4 7.0 7.2 86 1.0 SSE 9 9 5 5 1028.0 1028.4 0.2
21/06:30pm 10.2 9.3 7.8 85 1.2 S 2 9 1 5 1027.7 1028.1 0.2
21/06:00pm 10.9 10.5 8.3 84 1.3 CALM 0 0 0 0 1027.7 1028.1 0.2
21/05:30pm 11.4 9.9 8.3 81 1.5 S 6 7 3 4 1027.6 1028.0 0.2
21/05:00pm 12.1 10.6 8.4 78 1.8 E 6 7 3 4 1027.3 1027.7 0.2
21/04:30pm 12.9 11.5 8.8 76 2.1 E 6 7 3 4 1027.2 1027.6 0.2
21/04:00pm 12.8 10.8 8.5 75 2.2 ESE 9 11 5 6 1027.1 1027.5 0.2
21/03:30pm 13.3 11.7 8.8 74 2.3 SE 7 11 4 6 1027.1 1027.5 0.2
21/03:00pm 12.9 10.5 8.6 75 2.2 SSE 11 15 6 8 1027.0 1027.4 0.2
21/02:30pm 13.1 10.7 8.8 75 2.2 SSE 11 15 6 8 1027.3 1027.7 0.2
21/02:00pm 13.7 11.3 8.5 71 2.6 SSE 11 15 6 8 1027.3 1027.7 0.2
21/01:30pm 13.6 11.5 8.2 70 2.7 SE 9 11 5 6 1027.2 1027.6 0.2
21/01:00pm 13.3 11.3 8.6 73 2.4 S 9 15 5 8 1027.3 1027.7 0.0
21/12:30pm 12.8 10.9 8.9 77 2.0 SSE 9 13 5 7 1027.7 1028.1 0.0
21/12:00pm 12.1 9.9 8.0 76 2.0 S 9 13 5 7 1028.0 1028.4 0.0
21/11:30am 11.6 10.0 8.1 79 1.7 ESE 6 9 3 5 1028.2 1028.6 0.0
21/11:00am 10.4 8.6 7.8 84 1.3 SE 7 9 4 5 1028.4 1028.8 0.0
21/10:30am 9.4 7.6 7.8 90 0.8 SE 7 11 4 6 1028.5 1028.9 0.0
21/10:00am 8.6 8.2 8.2 97 0.2 CALM 0 0 0 0 1028.5 1028.9 0.0
21/09:30am 6.9 4.8 6.8 99 0.0 SSE 7 9 4 5 1028.6 1029.0 0.0
21/09:00am 5.2 3.3 5.1 99 0.0 SE 4 7 2 4 1028.5 1028.9 0.0
21/08:58am 5.0 2.7 4.9 99 0.0 SE 6 7 3 4 1028.5 1028.9 0.0
21/08:30am 1.9 -0.9 1.8 99 0.0 SSW 6 7 3 4 1028.2 1028.6 0.0
21/08:22am 1.3 -1.3 1.2 99 0.0 S 4 7 2 4 1028.1 1028.5 0.0
21/08:18am 1.4 -0.8 1.3 99 0.0 S 2 6 1 3 1028.0 1028.4 0.0
21/08:00am 0.7 -2.4 0.4 98 0.1 S 6 6 3 3 1027.9 1028.3 0.0
21/07:30am 1.0 -2.2 0.7 98 0.1 S 7 11 4 6 1027.6 1028.0 0.0
21/07:28am 0.9 -2.3 0.6 98 0.1 S 7 11 4 6 1027.5 1027.9 0.0
21/07:09am 0.2 -3.1 -0.1 98 0.1 S 7 9 4 5 1027.5 1027.9 0.0
21/07:00am 0.6 -2.5 0.3 98 0.1 SSE 6 9 3 5 1027.4 1027.8 0.0
21/06:30am 0.8 -1.9 0.5 98 0.1 SSE 4 7 2 4 1026.8 1027.3 0.0
21/06:00am 0.4 -1.6 0.1 98 0.1 CALM 0 0 0 0 1026.7 1027.2 0.0
21/05:30am 0.5 -1.5 0.2 98 0.1 CALM 0 0 0 0 1026.7 1027.2 0.0
21/05:00am 1.3 -1.7 1.0 98 0.1 SSE 6 7 3 4 1026.5 1027.0 0.0
21/04:30am 1.8 -1.3 1.5 98 0.1 SSE 7 7 4 4 1026.5 1027.0 0.0
21/04:10am 2.7 -0.2 2.4 98 0.1 SSE 7 9 4 5 1026.4 1026.8 0.0
21/04:00am 3.1 0.4 2.8 98 0.1 SSE 6 7 3 4 1026.5 1027.0 0.0
21/03:30am 2.9 0.0 2.6 98 0.1 SSE 7 9 4 5 1026.6 1027.1 0.0
21/03:00am 3.1 0.2 2.8 98 0.1 SSE 7 9 4 5 1026.7 1027.2 0.0
21/02:30am 3.2 0.0 2.9 98 0.1 SSE 9 11 5 6 1026.5 1027.0 0.0
21/02:00am 2.1 -1.3 1.8 98 0.1 SSE 9 11 5 6 1026.4 1026.8 0.0
21/01:53am 1.8 -1.3 1.5 98 0.1 SSE 7 9 4 5 1026.4 1026.8 0.0
21/01:30am 1.4 -1.8 1.0 97 0.2 S 7 9 4 5 1026.3 1026.7 0.0
21/01:13am 1.8 -1.1 1.4 97 0.2 SSE 6 9 3 5 1026.3 1026.7 0.0
21/01:00am 1.9 -1.2 1.5 97 0.2 S 7 9 4 5 1026.4 1026.8 0.0
21/12:57am 1.7 -1.8 1.3 97 0.2 S 9 9 5 5 1026.4 1026.8 0.0
21/12:37am 2.0 -1.4 1.6 97 0.2 S 9 11 5 6 1026.4 1026.8 0.0
21/12:30am 2.1 -1.3 1.7 97 0.2 SSE 9 11 5 6 1026.5 1027.0 0.0
21/12:22am 1.8 -1.1 1.4 97 0.2 SSE 6 9 3 5 1026.5 1027.0 0.0
21/12:02am 1.9 -0.2 1.5 97 0.2 S 2 6 1 3 1026.4 1026.8 0.0
21/12:00am 1.9 -0.2 1.5 97 0.2 S 2 7 1 4 1026.4 1026.8 0.0
 
Date/Time
EST
Temp
°C
App
Temp
°C
Dew
Point
°C
Rel
Hum
%
Delta-T
°C
Wind Press
QNH
hPa
Press
MSL
hPa
Rain since
9am
mm
Dir  Spd
km/h
Gust
km/h
Spd
kts
Gust
kts
20/11:30pm 2.3 -0.1 1.9 97 0.2 S 4 9 2 5 1026.5 1027.0 0.0
20/11:00pm 2.7 -0.3 2.3 97 0.2 S 7 9 4 5 1026.7 1027.2 0.0
20/10:59pm 2.8 -0.1 2.4 97 0.2 S 7 9 4 5 1026.7 1027.2 0.0
20/10:30pm 3.2 0.3 2.8 97 0.2 SSE 7 9 4 5 1026.6 1027.1 0.0
20/10:17pm 3.3 1.7 2.7 96 0.2 CALM 0 0 0 0 1026.6 1027.1 0.0
20/10:00pm 3.6 2.1 3.2 97 0.2 CALM 0 0 0 0 1026.7 1027.2 0.0
20/09:53pm 3.5 2.0 3.1 97 0.2 CALM 0 6 0 3 1026.8 1027.3 0.0
20/09:32pm 2.7 1.0 2.0 95 0.3 CALM 0 0 0 0 1027.1 1027.5 0.0
20/09:30pm 2.7 1.0 2.0 95 0.3 CALM 0 0 0 0 1027.1 1027.5 0.0
20/09:07pm 3.8 2.3 3.2 96 0.2 CALM 0 0 0 0 1026.8 1027.3 0.0
20/09:00pm 4.1 2.7 3.5 96 0.2 CALM 0 0 0 0 1027.0 1027.4 0.0
20/08:47pm 3.9 1.7 3.2 95 0.3 SSE 4 6 2 3 1027.0 1027.4 0.0
20/08:30pm 4.0 1.8 3.3 95 0.3 SSE 4 7 2 4 1027.2 1027.6 0.0
20/08:06pm 4.7 3.0 4.0 95 0.3 SSE 2 7 1 4 1027.1 1027.5 0.0
20/08:00pm 4.8 3.5 4.1 95 0.3 CALM 0 0 0 0 1027.0 1027.4 0.0
20/07:46pm 4.3 2.1 3.4 94 0.4 SSE 4 7 2 4 1027.0 1027.4 0.0
20/07:30pm 4.6 2.1 3.6 93 0.4 SSE 6 9 3 5 1026.8 1027.3 0.0
20/07:00pm 5.3 3.7 4.3 93 0.4 SSE 2 6 1 3 1027.0 1027.4 0.0
20/06:30pm 6.1 3.8 4.7 91 0.6 SE 6 7 3 4 1026.4 1026.8 0.0
20/06:00pm 6.8 5.6 4.6 86 1.0 CALM 0 0 0 0 1026.2 1026.6 0.0
20/05:30pm 9.6 7.5 5.8 77 1.8 NNW 6 7 3 4 1026.1 1026.5 0.0
20/05:00pm 11.7 9.6 6.6 71 2.4 N 7 9 4 5 1026.0 1026.4 0.0
20/04:30pm 12.4 9.6 6.9 69 2.7 NW 11 15 6 8 1026.0 1026.4 0.0
20/04:00pm 13.2 10.4 6.8 65 3.1 NW 11 15 6 8 1026.0 1026.4 0.0
20/03:30pm 13.6 10.8 6.9 64 3.3 NW 11 17 6 9 1025.8 1026.2 0.0
20/03:00pm 13.5 9.9 6.8 64 3.3 NW 15 20 8 11 1025.7 1026.1 0.0
20/02:30pm 13.5 10.2 6.6 63 3.4 WNW 13 20 7 11 1025.7 1026.1 0.0
20/02:00pm 12.9 9.7 6.7 66 3.0 NNW 13 19 7 10 1025.9 1026.3 0.0
20/01:30pm 13.4 10.2 7.0 65 3.1 NW 13 20 7 11 1026.4 1026.8 0.0
20/01:00pm 12.6 9.9 7.3 70 2.6 NNW 11 15 6 8 1027.0 1027.4 0.0
20/12:30pm 12.1 9.3 6.8 70 2.6 NNW 11 17 6 9 1027.5 1027.9 0.0
20/12:00pm 11.9 9.5 7.0 72 2.4 N 9 15 5 8 1027.8 1028.2 0.0
20/11:30am 11.3 9.5 7.0 75 2.1 N 6 9 3 5 1028.3 1028.7 0.0
20/11:00am 9.9 8.3 6.4 79 1.6 N 4 9 2 5 1028.7 1029.1 0.0
20/10:30am 8.8 6.8 6.1 83 1.3 NNE 6 7 3 4 1028.9 1029.3 0.0
20/10:00am 8.0 6.1 6.6 91 0.6 ENE 6 9 3 5 1028.9 1029.3 0.0
20/09:30am 6.0 3.6 5.4 96 0.3 SSE 7 9 4 5 1029.0 1029.4 0.0
20/09:00am 4.5 1.9 4.2 98 0.1 SSE 7 9 4 5 1029.0 1029.4 0.2
20/08:30am 1.2 -0.6 0.9 98 0.1 CALM 0 0 0 0 1028.8 1029.2 0.2
20/08:00am -0.1 -2.2 -0.5 97 0.1 CALM 0 0 0 0 1028.7 1029.1 0.2
20/07:37am 0.0 -2.0 -0.4 97 0.1 CALM 0 6 0 3 1028.5 1028.9 0.2
20/07:30am 0.3 -2.5 -0.1 97 0.1 S 4 6 2 3 1028.4 1028.8 0.2
20/07:18am 0.0 -3.4 -0.4 97 0.1 S 7 7 4 4 1028.4 1028.8 0.2
20/07:00am 0.1 -1.9 -0.3 97 0.1 CALM 0 0 0 0 1028.2 1028.6 0.2
20/06:30am 0.1 -1.9 -0.3 97 0.2 CALM 0 6 0 3 1028.1 1028.5 0.2
20/06:00am 0.0 -2.4 -0.4 97 0.1 S 2 6 1 3 1027.8 1028.2 0.2
20/05:30am 0.7 -2.4 0.3 97 0.1 S 6 7 3 4 1027.7 1028.1 0.2
20/05:10am 0.7 -2.0 0.3 97 0.1 S 4 6 2 3 1027.7 1028.1 0.2
20/05:00am 0.8 -2.3 0.4 97 0.1 S 6 7 3 4 1027.6 1028.0 0.2
20/04:50am 0.8 -2.5 0.4 97 0.1 S 7 7 4 4 1027.5 1027.9 0.2
20/04:30am 1.4 -1.8 1.0 97 0.2 S 7 9 4 5 1027.8 1028.2 0.2
20/04:00am 1.3 -1.7 0.9 97 0.1 S 6 7 3 4 1027.9 1028.3 0.2
20/03:30am 1.7 -0.8 1.3 97 0.2 S 4 6 2 3 1028.2 1028.6 0.2
20/03:00am 1.5 -0.3 0.9 96 0.2 CALM 0 0 0 0 1028.7 1029.1 0.2
20/02:30am 2.2 -0.6 1.8 97 0.2 S 6 7 3 4 1028.7 1029.1 0.2
20/02:01am 2.3 -0.6 1.7 96 0.2 S 6 6 3 3 1028.8 1029.2 0.2
20/02:00am 2.2 -0.7 1.6 96 0.2 S 6 6 3 3 1028.8 1029.2 0.2
20/01:48am 2.5 -0.3 1.9 96 0.2 S 6 7 3 4 1028.7 1029.1 0.2
20/01:30am 3.0 0.7 2.6 97 0.2 S 4 7 2 4 1028.6 1029.0 0.2
20/01:00am 2.8 1.2 2.2 96 0.2 CALM 0 0 0 0 1028.7 1029.1 0.2
20/12:30am 3.4 1.5 2.8 96 0.2 S 2 6 1 3 1028.9 1029.3 0.2
20/12:00am 3.7 1.8 3.0 95 0.3 SSE 2 7 1 4 1029.2 1029.6 0.2
 
Date/Time
EST
Temp
°C
App
Temp
°C
Dew
Point
°C
Rel
Hum
%
Delta-T
°C
Wind Press
QNH
hPa
Press
MSL
hPa
Rain since
9am
mm
Dir  Spd
km/h
Gust
km/h
Spd
kts
Gust
kts
19/11:30pm 4.1 2.6 3.2 94 0.4 CALM 0 0 0 0 1029.5 1029.9 0.2
19/11:00pm 5.1 3.4 4.2 94 0.4 SSE 2 7 1 4 1029.6 1030.0 0.2
19/10:30pm 5.9 4.7 4.5 91 0.6 CALM 0 0 0 0 1029.6 1030.0 0.2
19/10:00pm 6.5 4.9 4.7 88 0.8 S 2 7 1 4 1029.7 1030.1 0.2

Other Formats:

Comma delimited format used in spreadsheet applications
http://www.bom.gov.au/fwo/IDV60801/IDV60801.94855.axf

JavaScript Object Notation format (JSON) in row-major order
http://www.bom.gov.au/fwo/IDV60801/IDV60801.94855.json